Terminal Aerodrome Forecast
Issued by NWS Springfield, MO

Home | Current Version | Previous Version | Text Only | Print | Product List | Glossary On
Versions: 1 2 3 4 5 6 7 8 9 10 11 12 13 14 15 16
000
FTUS43 KSGF 130500
TAFSGF
TAF
KSGF 130520Z 1306/1406 01009KT P6SM OVC012
      TEMPO 1306/1310 5SM -DZ OVC009
     FM131000 02008KT P6SM OVC010
      TEMPO 1310/1314 OVC007
     FM131600 07010KT P6SM SKC=

USA.gov is the U.S. government's official web portal to all federal, state and local government web resources and services.